createdAt,value
2023-04-23T04:15:18.377Z,9.49
2023-04-23T04:16:18.405Z,9.49
2023-04-23T04:17:18.357Z,9.52
2023-04-23T04:18:18.329Z,9.53
2023-04-23T04:19:18.605Z,9.56
2023-04-23T04:20:18.324Z,9.57
2023-04-23T04:21:18.287Z,9.58
2023-04-23T04:22:18.283Z,9.60
2023-04-23T04:23:18.264Z,9.63
2023-04-23T04:24:18.256Z,9.64
2023-04-23T04:25:18.249Z,9.63
2023-04-23T04:26:18.230Z,9.63
2023-04-23T04:27:18.213Z,9.63
2023-04-23T04:28:18.197Z,9.61
2023-04-23T04:29:18.187Z,9.61
2023-04-23T04:30:18.180Z,9.61
2023-04-23T04:31:18.165Z,9.61
2023-04-23T04:32:18.199Z,9.61
2023-04-23T04:33:18.135Z,9.60
2023-04-23T04:34:18.120Z,9.58
2023-04-23T04:35:18.117Z,9.53
2023-04-23T04:36:18.092Z,9.52
2023-04-23T04:37:18.078Z,9.50
2023-04-23T04:38:18.077Z,9.50
2023-04-23T04:39:18.088Z,9.48
2023-04-23T04:40:18.057Z,9.48
2023-04-23T04:41:18.020Z,9.46
2023-04-23T04:42:18.038Z,9.45
2023-04-23T04:43:17.994Z,9.43
2023-04-23T04:44:17.987Z,9.45
2023-04-23T04:45:17.980Z,9.45
2023-04-23T04:46:17.994Z,9.45
2023-04-23T04:47:17.940Z,9.43
2023-04-23T04:48:17.930Z,9.46
2023-04-23T04:49:17.915Z,9.46
2023-04-23T04:50:17.912Z,9.46
2023-04-23T04:51:17.906Z,9.45
2023-04-23T04:52:17.886Z,9.43
2023-04-23T04:53:17.861Z,9.42
2023-04-23T04:54:17.850Z,9.43
2023-04-23T04:55:17.842Z,9.43
2023-04-23T04:56:17.830Z,9.43
2023-04-23T04:57:17.810Z,9.43
2023-04-23T04:58:17.802Z,9.43
2023-04-23T04:59:17.780Z,9.43
2023-04-23T05:00:17.775Z,9.43
2023-04-23T05:01:17.796Z,9.42
2023-04-23T05:02:17.835Z,9.39
2023-04-23T05:03:17.885Z,9.35
2023-04-23T05:04:17.874Z,9.34
2023-04-23T05:05:17.715Z,9.34
2023-04-23T05:06:17.705Z,9.34
2023-04-23T05:07:17.671Z,9.38
2023-04-23T05:08:17.664Z,9.38
2023-04-23T05:09:17.653Z,9.39
2023-04-23T05:10:17.644Z,9.38
2023-04-23T05:11:17.648Z,9.38
2023-04-23T05:12:17.617Z,9.35
2023-04-23T05:13:17.595Z,9.35
2023-04-23T05:14:17.606Z,9.34
2023-04-23T05:15:17.571Z,9.34
2023-04-23T05:16:17.607Z,9.34
2023-04-23T05:17:17.715Z,9.32
2023-04-23T05:18:17.528Z,9.31
2023-04-23T05:19:17.551Z,9.31
2023-04-23T05:20:17.512Z,9.31
2023-04-23T05:21:17.500Z,9.32
2023-04-23T05:22:17.488Z,9.39
2023-04-23T05:23:17.466Z,9.42
2023-04-23T05:24:17.461Z,9.43
2023-04-23T05:25:17.444Z,9.42
2023-04-23T05:26:17.437Z,9.43
2023-04-23T05:27:17.412Z,9.46
2023-04-23T05:28:17.458Z,9.50
2023-04-23T05:29:17.391Z,9.56
2023-04-23T05:30:17.374Z,9.58
2023-04-23T05:31:17.386Z,9.63
2023-04-23T05:32:24.517Z,9.70
2023-04-23T05:33:17.349Z,9.78
2023-04-23T05:34:17.356Z,9.82
2023-04-23T05:35:17.305Z,9.83
2023-04-23T05:36:17.332Z,9.86
2023-04-23T05:37:17.319Z,9.89
2023-04-23T05:38:17.280Z,9.94
2023-04-23T05:39:17.271Z,9.96
2023-04-23T05:40:17.250Z,10.01
2023-04-23T05:41:17.240Z,10.04
2023-04-23T05:42:17.222Z,10.06
2023-04-23T05:43:17.211Z,10.12
2023-04-23T05:44:17.194Z,10.10
2023-04-23T05:45:17.167Z,10.12
2023-04-23T05:46:17.280Z,10.17
2023-04-23T05:47:17.146Z,10.21
2023-04-23T05:48:17.138Z,10.28
2023-04-23T05:49:17.120Z,10.32
2023-04-23T05:50:17.119Z,10.36
2023-04-23T05:51:17.132Z,10.42
2023-04-23T05:52:17.083Z,10.44
2023-04-23T05:53:17.072Z,10.47
2023-04-23T05:54:17.073Z,10.51
2023-04-23T05:55:17.046Z,10.55
2023-04-23T05:56:17.054Z,10.52
2023-04-23T05:57:17.019Z,10.58
2023-04-23T05:58:17.035Z,10.63
2023-04-23T05:59:16.984Z,10.68
2023-04-23T06:00:17.007Z,10.76
2023-04-23T06:01:16.978Z,10.80
2023-04-23T06:02:17.022Z,10.86
2023-04-23T06:03:17.172Z,10.89
2023-04-23T06:04:17.137Z,10.94
2023-04-23T06:05:16.993Z,10.98
2023-04-23T06:06:16.898Z,10.96
2023-04-23T06:07:16.877Z,10.94
2023-04-23T06:08:16.868Z,10.99
2023-04-23T06:09:16.849Z,11.07
2023-04-23T06:10:16.849Z,11.10
2023-04-23T06:11:16.831Z,11.13
2023-04-23T06:12:16.812Z,11.19
2023-04-23T06:13:16.789Z,11.31
2023-04-23T06:14:16.780Z,11.41
2023-04-23T06:15:16.762Z,11.44
2023-04-23T06:16:16.787Z,11.47
2023-04-23T06:17:16.744Z,11.53
2023-04-23T06:18:16.781Z,11.57
2023-04-23T06:19:17.009Z,11.59
2023-04-23T06:20:16.714Z,11.54
2023-04-23T06:21:18.031Z,11.61
2023-04-23T06:22:16.666Z,11.64
2023-04-23T06:23:16.670Z,11.67
2023-04-23T06:24:16.794Z,11.68
2023-04-23T06:25:16.636Z,11.68
2023-04-23T06:26:16.686Z,11.80
2023-04-23T06:27:16.597Z,11.83
2023-04-23T06:28:16.600Z,11.82
2023-04-23T06:29:16.592Z,11.93
2023-04-23T06:30:16.599Z,11.99
2023-04-23T06:31:16.596Z,12.04
2023-04-23T06:32:19.020Z,12.12
2023-04-23T06:33:16.519Z,12.19
2023-04-23T06:34:16.519Z,12.26
2023-04-23T06:35:16.500Z,12.31
2023-04-23T06:36:16.493Z,12.34
2023-04-23T06:37:16.464Z,12.42
2023-04-23T06:38:16.461Z,12.39
2023-04-23T06:39:16.452Z,12.56
2023-04-23T06:40:16.436Z,12.75
2023-04-23T06:41:16.419Z,12.92
2023-04-23T06:42:16.400Z,12.95
2023-04-23T06:43:16.402Z,13.09
2023-04-23T06:44:16.391Z,13.12
2023-04-23T06:45:16.373Z,13.11
2023-04-23T06:46:16.352Z,12.99
2023-04-23T06:47:16.329Z,13.00
2023-04-23T06:48:16.368Z,12.99
2023-04-23T06:49:16.301Z,13.07
2023-04-23T06:50:16.324Z,13.15
2023-04-23T06:51:16.292Z,13.22
2023-04-23T06:52:16.275Z,13.29
2023-04-23T06:53:16.257Z,13.29
2023-04-23T06:54:16.241Z,13.32
2023-04-23T06:55:16.240Z,13.38
2023-04-23T06:56:16.252Z,13.40
2023-04-23T06:57:16.196Z,13.36
2023-04-23T06:58:16.680Z,13.44
2023-04-23T06:59:16.163Z,13.49
2023-04-23T07:00:16.190Z,13.44
2023-04-23T07:01:16.287Z,13.52
2023-04-23T07:02:16.168Z,13.51
2023-04-23T07:03:16.195Z,13.51
2023-04-23T07:04:16.133Z,13.47
2023-04-23T07:05:16.129Z,13.49
2023-04-23T07:06:16.099Z,13.54
2023-04-23T07:07:16.079Z,13.59
2023-04-23T07:08:16.072Z,13.62
2023-04-23T07:09:16.057Z,13.67
2023-04-23T07:10:17.955Z,13.67
2023-04-23T07:11:16.040Z,13.58
2023-04-23T07:12:16.022Z,13.58
2023-04-23T07:13:16.008Z,13.65
2023-04-23T07:14:15.996Z,13.76
2023-04-23T07:15:16.026Z,13.83
2023-04-23T07:16:16.007Z,13.87
2023-04-23T07:17:15.982Z,13.81
2023-04-23T07:18:15.968Z,13.70
2023-04-23T07:19:15.938Z,13.63
2023-04-23T07:20:15.938Z,13.62
2023-04-23T07:21:15.910Z,13.63
2023-04-23T07:22:15.898Z,13.61
2023-04-23T07:23:15.873Z,13.62
2023-04-23T07:24:15.864Z,13.63
2023-04-23T07:25:15.868Z,13.65
2023-04-23T07:26:15.844Z,13.58
2023-04-23T07:27:15.826Z,13.56
2023-04-23T07:28:15.825Z,13.58
2023-04-23T07:29:15.805Z,13.58
2023-04-23T07:30:15.827Z,13.61
2023-04-23T07:31:15.789Z,13.59
2023-04-23T07:32:15.798Z,13.62
2023-04-23T07:33:15.748Z,13.63
2023-04-23T07:34:15.734Z,13.61
2023-04-23T07:35:15.723Z,13.54
2023-04-23T07:36:15.728Z,13.56
2023-04-23T07:37:15.690Z,13.52
2023-04-23T07:38:15.691Z,13.52
2023-04-23T07:39:15.669Z,13.56
2023-04-23T07:40:15.665Z,13.56
2023-04-23T07:41:15.644Z,13.58
2023-04-23T07:42:15.633Z,13.62
2023-04-23T07:43:15.640Z,13.65
2023-04-23T07:44:15.620Z,13.69
2023-04-23T07:45:15.611Z,13.76
2023-04-23T07:46:15.611Z,13.80
2023-04-23T07:47:15.579Z,13.84
2023-04-23T07:48:15.559Z,13.79
2023-04-23T07:49:15.551Z,13.80
2023-04-23T07:50:15.561Z,13.84
2023-04-23T07:51:15.509Z,13.88
2023-04-23T07:52:15.552Z,13.88
2023-04-23T07:53:15.484Z,13.87
2023-04-23T07:54:15.471Z,13.84
2023-04-23T07:55:15.526Z,13.81
2023-04-23T07:56:15.452Z,13.84
2023-04-23T07:57:15.444Z,13.81
2023-04-23T07:58:15.440Z,13.89
2023-04-23T07:59:15.410Z,13.91
2023-04-23T08:00:15.402Z,13.92
2023-04-23T08:01:15.384Z,13.94
2023-04-23T08:02:15.422Z,13.96
2023-04-23T08:03:15.448Z,13.96
2023-04-23T08:04:15.723Z,14.02
2023-04-23T08:05:15.371Z,14.10
2023-04-23T08:06:15.325Z,14.19
2023-04-23T08:07:15.308Z,14.25
2023-04-23T08:08:15.280Z,14.27
2023-04-23T08:09:15.274Z,14.28
2023-04-23T08:10:15.270Z,14.32
2023-04-23T08:11:15.251Z,14.38
2023-04-23T08:12:15.235Z,14.43
2023-04-23T08:13:15.217Z,14.43
2023-04-23T08:14:15.195Z,14.43
2023-04-23T08:15:15.209Z,14.34
2023-04-23T08:16:15.205Z,14.34
2023-04-23T08:17:15.173Z,14.38
2023-04-23T08:18:15.142Z,14.49
2023-04-23T08:19:15.151Z,14.61
2023-04-23T08:20:15.142Z,14.57
2023-04-23T08:21:15.111Z,14.61
2023-04-23T08:22:15.089Z,14.64
2023-04-23T08:23:15.085Z,14.68
2023-04-23T08:24:15.096Z,14.68
2023-04-23T08:25:15.078Z,14.83
2023-04-23T08:26:15.056Z,14.93
2023-04-23T08:27:15.029Z,15.11
2023-04-23T08:28:15.009Z,15.11
2023-04-23T08:29:15.013Z,15.15
2023-04-23T08:30:14.993Z,15.12
2023-04-23T08:31:25.533Z,15.08
2023-04-23T08:32:16.989Z,15.01
2023-04-23T08:33:14.955Z,15.12
2023-04-23T08:34:14.961Z,15.20
2023-04-23T08:35:14.936Z,15.26
2023-04-23T08:36:14.904Z,15.38
2023-04-23T08:37:27.189Z,15.33
2023-04-23T08:38:15.879Z,15.27
2023-04-23T08:39:14.879Z,15.33
2023-04-23T08:40:14.908Z,15.38
2023-04-23T08:41:14.837Z,15.45
2023-04-23T08:42:14.850Z,15.51
2023-04-23T08:43:14.823Z,15.60
2023-04-23T08:44:14.803Z,15.63
2023-04-23T08:45:14.816Z,15.66
2023-04-23T08:46:14.806Z,15.72
2023-04-23T08:47:14.767Z,15.67
2023-04-23T08:48:14.749Z,15.63
2023-04-23T08:49:14.738Z,15.64
2023-04-23T08:50:14.740Z,15.79
2023-04-23T08:51:14.702Z,15.78
2023-04-23T08:52:14.695Z,15.70
2023-04-23T08:53:14.690Z,15.68
2023-04-23T08:54:14.671Z,15.78
2023-04-23T08:55:14.668Z,15.96
2023-04-23T08:56:14.656Z,16.09
2023-04-23T08:57:14.633Z,16.15
2023-04-23T08:58:14.644Z,16.20
2023-04-23T08:59:14.605Z,16.06
2023-04-23T09:00:14.626Z,15.99
2023-04-23T09:01:14.638Z,16.03
2023-04-23T09:02:14.676Z,15.99
2023-04-23T09:03:14.635Z,16.04
2023-04-23T09:04:14.539Z,16.11
2023-04-23T09:05:14.538Z,16.15
2023-04-23T09:06:14.515Z,16.18
2023-04-23T09:07:14.496Z,16.27
2023-04-23T09:08:14.498Z,16.44
2023-04-23T09:09:14.467Z,16.45
2023-04-23T09:10:17.734Z,16.56
2023-04-23T09:11:14.449Z,16.60
2023-04-23T09:12:14.439Z,16.70
2023-04-23T09:13:14.420Z,16.77
2023-04-23T09:14:14.404Z,16.88
2023-04-23T09:15:14.404Z,16.81
2023-04-23T09:16:14.413Z,16.96
2023-04-23T09:17:14.360Z,17.00
2023-04-23T09:18:14.357Z,17.18
2023-04-23T09:19:14.340Z,17.29
2023-04-23T09:20:14.356Z,17.28
2023-04-23T09:21:14.319Z,16.93
2023-04-23T09:22:14.308Z,16.78
2023-04-23T09:23:14.280Z,16.74
2023-04-23T09:24:14.269Z,17.06
2023-04-23T09:25:14.267Z,17.14
2023-04-23T09:26:14.266Z,17.11
2023-04-23T09:27:14.237Z,17.17
2023-04-23T09:28:14.217Z,17.30
2023-04-23T09:29:14.201Z,17.44
2023-04-23T09:30:14.206Z,17.48
2023-04-23T09:31:14.185Z,17.57
2023-04-23T09:32:14.263Z,17.66
2023-04-23T09:33:14.160Z,17.82
2023-04-23T09:34:14.150Z,17.94
2023-04-23T09:35:14.140Z,18.27
2023-04-23T09:36:14.133Z,18.59
2023-04-23T09:37:14.120Z,18.47
2023-04-23T09:38:14.100Z,18.22
2023-04-23T09:39:14.084Z,18.02
2023-04-23T09:40:14.087Z,17.88
2023-04-23T09:41:14.050Z,17.71
2023-04-23T09:42:14.037Z,17.54
2023-04-23T09:43:14.019Z,17.38
2023-04-23T09:44:14.016Z,17.20
2023-04-23T09:45:14.007Z,17.06
2023-04-23T09:46:14.021Z,17.06
2023-04-23T09:47:13.960Z,17.23
2023-04-23T09:48:13.967Z,17.51
2023-04-23T09:49:13.935Z,17.51
2023-04-23T09:50:13.948Z,17.64
2023-04-23T09:51:13.915Z,17.55
2023-04-23T09:52:13.906Z,17.55
2023-04-23T09:53:13.882Z,17.66
2023-04-23T09:54:13.876Z,17.66
2023-04-23T09:55:13.870Z,17.79
2023-04-23T09:56:13.845Z,17.70
2023-04-23T09:57:13.836Z,17.66
2023-04-23T09:58:13.837Z,17.99
2023-04-23T09:59:13.806Z,18.06
2023-04-23T10:00:14.801Z,17.94
2023-04-23T10:01:13.807Z,18.22
2023-04-23T10:02:14.017Z,18.12
2023-04-23T10:03:13.821Z,18.31
2023-04-23T10:04:13.953Z,18.47
2023-04-23T10:05:23.021Z,18.95
2023-04-23T10:06:25.784Z,19.10
2023-04-23T10:08:13.976Z,19.40
2023-04-23T10:09:13.670Z,19.53
2023-04-23T10:10:13.668Z,19.23
2023-04-23T10:11:20.762Z,18.84
2023-04-23T10:13:13.620Z,17.74
2023-04-23T10:14:13.606Z,17.63
2023-04-23T10:15:13.580Z,17.59
2023-04-23T10:16:22.233Z,17.54
2023-04-23T10:17:14.568Z,17.54
2023-04-23T10:18:13.557Z,17.57
2023-04-23T10:19:13.534Z,17.59
2023-04-23T10:20:13.564Z,17.55
2023-04-23T10:21:13.509Z,17.55
2023-04-23T10:23:13.486Z,17.50
2023-04-23T10:24:13.472Z,17.59
2023-04-23T10:25:13.470Z,17.66
2023-04-23T10:26:13.459Z,17.71
2023-04-23T10:27:24.853Z,17.85
2023-04-23T10:28:14.424Z,18.04
2023-04-23T10:29:13.401Z,18.22
2023-04-23T10:30:13.422Z,18.31
2023-04-23T10:31:13.408Z,18.44
2023-04-23T10:32:13.396Z,18.65
2023-04-23T10:33:26.536Z,18.92
2023-04-23T10:34:14.393Z,18.79
2023-04-23T10:35:13.333Z,18.77
2023-04-23T10:36:13.314Z,19.06
2023-04-23T10:37:13.316Z,19.02
2023-04-23T10:38:13.288Z,19.24
2023-04-23T10:39:15.855Z,19.29
2023-04-23T10:40:14.536Z,19.38
2023-04-23T10:41:13.245Z,19.39
2023-04-23T10:42:13.245Z,19.18
2023-04-23T10:43:13.211Z,18.95
2023-04-23T10:44:15.934Z,18.72
2023-04-23T10:45:22.578Z,18.67
2023-04-23T10:46:14.184Z,18.55
2023-04-23T10:47:13.167Z,18.57
2023-04-23T10:48:13.155Z,18.65
2023-04-23T10:49:13.147Z,18.70
2023-04-23T10:50:13.144Z,18.76
2023-04-23T10:52:20.636Z,18.83
2023-04-23T10:53:14.100Z,18.55
2023-04-23T10:54:13.086Z,18.37
2023-04-23T10:55:13.064Z,18.22
2023-04-23T10:56:13.047Z,18.19
2023-04-23T10:57:13.048Z,18.13
2023-04-23T10:58:13.031Z,18.03
2023-04-23T10:59:13.004Z,18.10
2023-04-23T11:00:13.029Z,18.24
2023-04-23T11:01:12.983Z,18.27
2023-04-23T11:02:13.045Z,18.15
2023-04-23T11:03:13.012Z,18.37
2023-04-23T11:04:13.054Z,18.73
2023-04-23T11:05:12.936Z,18.87
2023-04-23T11:06:12.915Z,18.91
2023-04-23T11:07:12.905Z,19.11
2023-04-23T11:08:19.253Z,19.42
2023-04-23T11:09:13.867Z,19.79
2023-04-23T11:10:12.882Z,20.10
2023-04-23T11:11:12.847Z,20.35
2023-04-23T11:12:12.838Z,20.43
2023-04-23T11:13:12.819Z,19.91
2023-04-23T11:14:12.822Z,19.84
2023-04-23T11:15:12.808Z,20.13
2023-04-23T11:16:12.877Z,20.27
2023-04-23T11:17:12.773Z,20.58
2023-04-23T11:18:12.758Z,20.61
2023-04-23T11:19:13.050Z,20.53
2023-04-23T11:20:12.755Z,20.66
2023-04-23T11:21:12.720Z,20.33
2023-04-23T11:22:12.706Z,20.25
2023-04-23T11:23:12.689Z,20.39
2023-04-23T11:24:12.688Z,20.34
2023-04-23T11:25:12.670Z,20.77
2023-04-23T11:26:12.674Z,21.13
2023-04-23T11:27:12.634Z,20.96
2023-04-23T11:28:12.626Z,20.46
2023-04-23T11:29:12.613Z,20.10
2023-04-23T11:30:12.659Z,20.13
2023-04-23T11:31:12.587Z,19.95
2023-04-23T11:32:12.613Z,20.03
2023-04-23T11:33:19.711Z,19.83
2023-04-23T11:34:12.538Z,19.75
2023-04-23T11:35:13.813Z,19.86
2023-04-23T11:36:12.527Z,19.83
2023-04-23T11:37:12.538Z,19.65
2023-04-23T11:38:12.488Z,19.51
2023-04-23T11:39:12.476Z,19.11
2023-04-23T11:40:12.523Z,18.92
2023-04-23T11:41:12.474Z,19.11
2023-04-23T11:42:12.435Z,19.28
2023-04-23T11:43:12.426Z,19.21
2023-04-23T11:44:12.407Z,19.24
2023-04-23T11:45:12.421Z,19.42
2023-04-23T11:46:12.420Z,19.47
2023-04-23T11:47:12.375Z,19.39
2023-04-23T11:48:12.348Z,19.32
2023-04-23T11:49:12.344Z,19.15
2023-04-23T11:50:12.391Z,19.36
2023-04-23T11:51:12.321Z,19.76
2023-04-23T11:52:12.305Z,20.28
2023-04-23T11:53:12.300Z,20.80
2023-04-23T11:54:12.273Z,20.95
2023-04-23T11:55:12.288Z,20.84
2023-04-23T11:56:12.253Z,20.64
2023-04-23T11:57:12.253Z,20.53
2023-04-23T11:58:12.227Z,20.50
2023-04-23T11:59:12.227Z,20.43
2023-04-23T12:00:12.218Z,20.23
2023-04-23T12:01:12.188Z,19.84
2023-04-23T12:02:12.222Z,19.70
2023-04-23T12:03:12.384Z,19.60
2023-04-23T12:04:12.372Z,19.63
2023-04-23T12:05:12.175Z,19.72
2023-04-23T12:06:12.120Z,19.50
2023-04-23T12:07:25.380Z,18.98
2023-04-23T12:08:13.098Z,18.84
2023-04-23T12:09:12.079Z,18.94
2023-04-23T12:10:12.097Z,18.95
2023-04-23T12:11:12.069Z,18.86
2023-04-23T12:12:12.046Z,18.83
2023-04-23T12:13:12.031Z,18.90
2023-04-23T12:14:12.026Z,19.01
2023-04-23T12:15:12.000Z,19.01
2023-04-23T12:16:12.098Z,19.15
2023-04-23T12:17:11.983Z,19.11
2023-04-23T12:18:11.973Z,18.95
2023-04-23T12:19:11.943Z,18.94
2023-04-23T12:20:11.960Z,19.01
2023-04-23T12:21:11.939Z,19.11
2023-04-23T12:22:11.914Z,19.17
2023-04-23T12:23:11.897Z,19.06
2023-04-23T12:24:11.903Z,19.14
2023-04-23T12:25:11.875Z,19.20
2023-04-23T12:26:11.882Z,19.17
2023-04-23T12:27:11.843Z,18.83
2023-04-23T12:28:11.851Z,18.86
2023-04-23T12:29:11.817Z,18.92
2023-04-23T12:30:12.088Z,18.94
2023-04-23T12:31:11.817Z,18.97
2023-04-23T12:32:11.825Z,18.87
2023-04-23T12:33:11.769Z,18.68
2023-04-23T12:34:11.750Z,18.58
2023-04-23T12:35:11.745Z,18.52
2023-04-23T12:36:11.738Z,18.47
2023-04-23T12:37:11.707Z,18.36
2023-04-23T12:38:11.701Z,18.37
2023-04-23T12:39:11.690Z,18.39
2023-04-23T12:40:11.677Z,18.44
2023-04-23T12:41:11.676Z,18.47
2023-04-23T12:42:11.646Z,18.46
2023-04-23T12:43:11.638Z,18.42
2023-04-23T12:44:11.629Z,18.40
2023-04-23T12:45:11.610Z,18.34
2023-04-23T12:46:11.648Z,18.37
2023-04-23T12:47:11.667Z,18.22
2023-04-23T12:48:11.566Z,17.97
2023-04-23T12:49:11.557Z,17.73
2023-04-23T12:50:11.544Z,17.28
2023-04-23T12:51:11.540Z,16.95
2023-04-23T12:52:13.370Z,16.53
2023-04-23T12:53:11.498Z,16.14
2023-04-23T12:54:11.489Z,15.78
2023-04-23T12:55:11.470Z,15.41
2023-04-23T12:56:11.481Z,15.20
2023-04-23T12:57:11.484Z,14.75
2023-04-23T12:58:11.439Z,14.53
2023-04-23T12:59:11.412Z,14.43
2023-04-23T13:00:11.408Z,14.49
2023-04-23T13:01:11.489Z,14.53
2023-04-23T13:02:11.507Z,14.67
2023-04-23T13:03:11.600Z,14.84
2023-04-23T13:04:11.358Z,15.20
2023-04-23T13:05:11.362Z,15.38
2023-04-23T13:06:11.348Z,15.43
2023-04-23T13:07:11.327Z,15.52
2023-04-23T13:08:11.308Z,15.41
2023-04-23T13:09:11.337Z,15.54
2023-04-23T13:10:11.310Z,15.68
2023-04-23T13:11:11.291Z,16.03
2023-04-23T13:12:11.253Z,16.30
2023-04-23T13:13:11.232Z,16.45
2023-04-23T13:14:11.222Z,16.71
2023-04-23T13:15:11.222Z,16.85
2023-04-23T13:16:11.267Z,16.85
2023-04-23T13:17:11.182Z,16.81
2023-04-23T13:18:11.172Z,16.90
2023-04-23T13:19:11.155Z,16.99
2023-04-23T13:20:11.166Z,17.11
2023-04-23T13:21:11.128Z,17.17
2023-04-23T13:22:11.122Z,17.25
2023-04-23T13:23:11.098Z,17.28
2023-04-23T13:24:11.091Z,17.48
2023-04-23T13:25:11.088Z,17.64
2023-04-23T13:26:11.068Z,17.89
2023-04-23T13:27:11.050Z,18.02
2023-04-23T13:28:11.034Z,18.13
2023-04-23T13:29:11.017Z,18.09
2023-04-23T13:30:11.022Z,18.04
2023-04-23T13:31:10.999Z,18.31
2023-04-23T13:32:11.021Z,18.55
2023-04-23T13:33:10.967Z,18.77
2023-04-23T13:34:10.961Z,19.01
2023-04-23T13:35:10.959Z,19.15
2023-04-23T13:36:10.934Z,19.33
2023-04-23T13:37:10.920Z,19.57
2023-04-23T13:38:10.904Z,19.84
2023-04-23T13:39:10.903Z,19.66
2023-04-23T13:40:10.883Z,19.70
2023-04-23T13:41:10.864Z,19.87
2023-04-23T13:42:10.858Z,20.27
2023-04-23T13:43:10.837Z,20.56
2023-04-23T13:44:10.839Z,20.68
2023-04-23T13:45:11.350Z,21.08
2023-04-23T13:46:10.853Z,20.77
2023-04-23T13:47:10.792Z,20.71
2023-04-23T13:48:10.773Z,20.38
2023-04-23T13:49:10.776Z,20.43
2023-04-23T13:50:10.747Z,20.79
2023-04-23T13:51:25.995Z,21.20
2023-04-23T13:52:11.718Z,21.06
2023-04-23T13:53:10.705Z,20.95
2023-04-23T13:54:10.709Z,21.09
2023-04-23T13:55:10.691Z,20.91
2023-04-23T13:56:10.676Z,21.16
2023-04-23T13:57:10.654Z,21.13
2023-04-23T13:58:12.211Z,20.77
2023-04-23T13:59:18.840Z,20.35
2023-04-23T14:00:11.631Z,20.39
2023-04-23T14:01:10.634Z,19.90
2023-04-23T14:02:10.611Z,19.68
2023-04-23T14:03:10.709Z,19.70
2023-04-23T14:04:13.010Z,19.93
2023-04-23T14:05:10.566Z,20.05
2023-04-23T14:06:10.537Z,20.47
2023-04-23T14:07:10.537Z,20.80
2023-04-23T14:08:10.513Z,20.72
2023-04-23T14:09:10.516Z,20.62
2023-04-23T14:10:10.493Z,20.35
2023-04-23T14:11:10.468Z,20.02
2023-04-23T14:12:10.467Z,19.60
2023-04-23T14:13:10.445Z,19.91
2023-04-23T14:14:10.440Z,20.47
2023-04-23T14:15:10.435Z,20.49
2023-04-23T14:16:10.421Z,20.42
2023-04-23T14:17:10.387Z,20.34
2023-04-23T14:18:10.384Z,20.31
2023-04-23T14:19:10.367Z,20.39
2023-04-23T14:20:10.365Z,20.24
2023-04-23T14:21:10.334Z,20.28
2023-04-23T14:22:10.327Z,20.46
2023-04-23T14:23:10.299Z,20.51
2023-04-23T14:24:10.324Z,20.23
2023-04-23T14:25:10.289Z,20.16
2023-04-23T14:26:10.273Z,19.84
2023-04-23T14:27:10.262Z,19.54
2023-04-23T14:28:10.246Z,19.47
2023-04-23T14:29:10.231Z,19.24
2023-04-23T14:30:10.258Z,19.13
2023-04-23T14:31:10.215Z,19.05
2023-04-23T14:32:10.215Z,18.95
2023-04-23T14:33:10.217Z,18.87
2023-04-23T14:34:10.161Z,18.86
2023-04-23T14:35:10.162Z,18.92
2023-04-23T14:36:10.133Z,19.05
2023-04-23T14:37:10.127Z,19.05
2023-04-23T14:38:10.120Z,18.98
2023-04-23T14:39:10.112Z,18.92
2023-04-23T14:40:10.102Z,18.80
2023-04-23T14:41:10.086Z,18.73
2023-04-23T14:42:10.053Z,18.62
2023-04-23T14:43:15.435Z,18.57
2023-04-23T14:44:11.036Z,18.55
2023-04-23T14:45:10.043Z,18.67
2023-04-23T14:46:10.034Z,18.65
2023-04-23T14:47:09.998Z,18.68
2023-04-23T14:48:09.977Z,18.73
2023-04-23T14:49:09.985Z,18.80
2023-04-23T14:50:09.966Z,18.74
2023-04-23T14:51:09.962Z,18.73
2023-04-23T14:52:09.931Z,18.84
2023-04-23T14:53:09.925Z,18.94
2023-04-23T14:54:09.908Z,18.94
2023-04-23T14:55:09.897Z,18.91
2023-04-23T14:56:09.874Z,18.91
2023-04-23T14:57:09.862Z,18.82
2023-04-23T14:58:09.859Z,18.72
2023-04-23T14:59:09.836Z,18.54
2023-04-23T15:00:09.853Z,18.43
2023-04-23T15:01:09.809Z,18.36
2023-04-23T15:02:09.874Z,18.27
2023-04-23T15:03:09.914Z,18.29
2023-04-23T15:04:09.879Z,18.12
2023-04-23T15:05:09.782Z,18.15
2023-04-23T15:06:09.749Z,18.19
2023-04-23T15:07:09.726Z,18.19
2023-04-23T15:08:09.710Z,18.24
2023-04-23T15:09:09.727Z,18.36
2023-04-23T15:10:09.707Z,18.44
2023-04-23T15:11:09.701Z,18.57
2023-04-23T15:12:09.653Z,18.58
2023-04-23T15:13:09.688Z,18.59
2023-04-23T15:14:09.647Z,18.62
2023-04-23T15:15:09.610Z,18.64
2023-04-23T15:16:09.614Z,18.58
2023-04-23T15:17:09.624Z,18.54
2023-04-23T15:18:09.621Z,18.50
2023-04-23T15:19:09.589Z,18.49
2023-04-23T15:20:09.547Z,18.46
2023-04-23T15:21:09.543Z,18.55
2023-04-23T15:22:09.551Z,18.61
2023-04-23T15:23:09.526Z,18.59
2023-04-23T15:24:09.515Z,18.59
2023-04-23T15:25:09.493Z,18.64
2023-04-23T15:26:09.475Z,18.65
2023-04-23T15:27:09.465Z,18.67
2023-04-23T15:28:09.448Z,18.62
2023-04-23T15:29:09.454Z,18.50
2023-04-23T15:30:09.420Z,18.46
2023-04-23T15:31:09.414Z,18.42
2023-04-23T15:32:09.421Z,18.43
2023-04-23T15:33:09.387Z,18.47
2023-04-23T15:34:09.827Z,18.43
2023-04-23T15:35:09.368Z,18.44
2023-04-23T15:36:09.346Z,18.49
2023-04-23T15:37:09.341Z,18.52
2023-04-23T15:38:09.327Z,18.57
2023-04-23T15:39:09.391Z,18.55
2023-04-23T15:40:09.297Z,18.55
2023-04-23T15:41:09.299Z,18.57
2023-04-23T15:42:09.267Z,18.57
2023-04-23T15:43:09.256Z,18.55
2023-04-23T15:44:09.249Z,18.54
2023-04-23T15:45:09.224Z,18.54
2023-04-23T15:46:09.257Z,18.58
2023-04-23T15:47:09.203Z,18.67
2023-04-23T15:48:09.185Z,18.64
2023-04-23T15:49:09.217Z,18.59
2023-04-23T15:50:09.173Z,18.58
2023-04-23T15:51:09.157Z,18.57
2023-04-23T15:52:09.146Z,18.50
2023-04-23T15:53:09.138Z,18.52
2023-04-23T15:54:09.171Z,18.50
2023-04-23T15:55:09.140Z,18.49
2023-04-23T15:56:09.091Z,18.52
2023-04-23T15:57:09.089Z,18.54
2023-04-23T15:58:09.053Z,18.49
2023-04-23T15:59:09.057Z,18.54
2023-04-23T16:00:09.027Z,18.58
2023-04-23T16:01:09.024Z,18.59
2023-04-23T16:02:09.071Z,18.57
2023-04-23T16:03:09.139Z,18.59
2023-04-23T16:04:11.594Z,18.61
2023-04-23T16:05:08.956Z,18.62
2023-04-23T16:06:09.927Z,18.65
2023-04-23T16:07:08.935Z,18.64
2023-04-23T16:08:08.936Z,18.59
2023-04-23T16:09:09.122Z,18.57
2023-04-23T16:10:08.886Z,18.50
2023-04-23T16:11:08.935Z,18.52
2023-04-23T16:12:08.994Z,18.47
2023-04-23T16:13:08.852Z,18.40
2023-04-23T16:14:08.846Z,18.42
2023-04-23T16:15:08.825Z,18.44
2023-04-23T16:16:08.804Z,18.47
2023-04-23T16:17:08.842Z,18.49
2023-04-23T16:18:08.884Z,18.47
2023-04-23T16:19:08.798Z,18.46
2023-04-23T16:20:08.775Z,18.43
2023-04-23T16:21:08.744Z,18.40
2023-04-23T16:22:08.769Z,18.39
2023-04-23T16:23:08.721Z,18.40
2023-04-23T16:24:08.765Z,18.36
2023-04-23T16:25:08.691Z,18.29
2023-04-23T16:26:08.679Z,18.25
2023-04-23T16:27:08.683Z,18.22
2023-04-23T16:28:08.676Z,18.21
2023-04-23T16:29:21.479Z,18.21
2023-04-23T16:30:09.628Z,18.09
2023-04-23T16:31:08.785Z,17.84
2023-04-23T16:32:08.604Z,17.59
2023-04-23T16:33:08.615Z,17.41
2023-04-23T16:34:08.622Z,17.26
2023-04-23T16:35:08.574Z,17.14
2023-04-23T16:36:08.547Z,17.07
2023-04-23T16:37:08.541Z,16.95
2023-04-23T16:38:08.518Z,16.90
2023-04-23T16:39:08.520Z,16.80
2023-04-23T16:40:08.499Z,16.73
2023-04-23T16:41:08.473Z,16.58
2023-04-23T16:42:08.468Z,16.50
2023-04-23T16:43:08.449Z,16.41
2023-04-23T16:44:08.474Z,16.27
2023-04-23T16:45:08.426Z,16.12
2023-04-23T16:46:08.468Z,16.00
2023-04-23T16:47:08.405Z,15.93
2023-04-23T16:48:08.392Z,15.86
2023-04-23T16:49:08.383Z,15.82
2023-04-23T16:50:08.395Z,15.76
2023-04-23T16:51:08.352Z,15.66
2023-04-23T16:52:08.337Z,15.61
2023-04-23T16:53:08.504Z,15.52
2023-04-23T16:54:08.306Z,15.42
2023-04-23T16:55:08.300Z,15.28
2023-04-23T16:56:08.295Z,15.21
2023-04-23T16:57:08.270Z,15.12
2023-04-23T16:58:08.265Z,15.01
2023-04-23T16:59:08.242Z,14.93
2023-04-23T17:00:08.234Z,14.88
2023-04-23T17:01:08.277Z,14.86
2023-04-23T17:02:08.432Z,14.80
2023-04-23T17:03:08.381Z,14.75
2023-04-23T17:04:08.326Z,14.74
2023-04-23T17:05:08.183Z,14.68
2023-04-23T17:06:08.153Z,14.67
2023-04-23T17:07:08.135Z,14.67
2023-04-23T17:08:08.143Z,14.67
2023-04-23T17:09:08.104Z,14.69
2023-04-23T17:10:08.091Z,14.65
2023-04-23T17:11:08.084Z,14.68
2023-04-23T17:12:08.075Z,14.68
2023-04-23T17:13:08.067Z,14.67
2023-04-23T17:14:08.042Z,14.68